sensor_id;sensor_type;location;lat;lon;timestamp;P1;durP1;ratioP1;P2;durP2;ratioP2
47804;SDS011;33568;45.286;9.900;2023-03-17T00:00:46;14.27;;;6.53;;
47804;SDS011;33568;45.286;9.900;2023-03-17T00:03:18;13.18;;;7.32;;
47804;SDS011;33568;45.286;9.900;2023-03-17T00:05:52;13.50;;;6.63;;
47804;SDS011;33568;45.286;9.900;2023-03-17T00:08:20;10.55;;;6.82;;
47804;SDS011;33568;45.286;9.900;2023-03-17T00:10:52;9.38;;;6.43;;
47804;SDS011;33568;45.286;9.900;2023-03-17T00:13:19;12.60;;;6.88;;
47804;SDS011;33568;45.286;9.900;2023-03-17T00:15:47;14.38;;;7.25;;
47804;SDS011;33568;45.286;9.900;2023-03-17T00:18:18;10.93;;;6.05;;
47804;SDS011;33568;45.286;9.900;2023-03-17T00:20:45;11.65;;;6.80;;
47804;SDS011;33568;45.286;9.900;2023-03-17T00:23:17;8.75;;;5.57;;
47804;SDS011;33568;45.286;9.900;2023-03-17T00:25:46;8.98;;;5.93;;
47804;SDS011;33568;45.286;9.900;2023-03-17T00:28:18;9.38;;;5.55;;
47804;SDS011;33568;45.286;9.900;2023-03-17T00:30:58;7.78;;;5.63;;
47804;SDS011;33568;45.286;9.900;2023-03-17T00:33:29;7.50;;;4.75;;
47804;SDS011;33568;45.286;9.900;2023-03-17T00:35:57;14.32;;;5.50;;
47804;SDS011;33568;45.286;9.900;2023-03-17T00:38:24;10.95;;;5.35;;
47804;SDS011;33568;45.286;9.900;2023-03-17T00:40:51;10.43;;;5.93;;
47804;SDS011;33568;45.286;9.900;2023-03-17T00:43:20;10.80;;;5.63;;
47804;SDS011;33568;45.286;9.900;2023-03-17T00:48:17;11.77;;;5.53;;
47804;SDS011;33568;45.286;9.900;2023-03-17T00:50:46;8.15;;;4.95;;
47804;SDS011;33568;45.286;9.900;2023-03-17T00:53:15;10.60;;;5.80;;
47804;SDS011;33568;45.286;9.900;2023-03-17T00:55:43;9.57;;;5.03;;
47804;SDS011;33568;45.286;9.900;2023-03-17T00:58:16;9.40;;;5.85;;
47804;SDS011;33568;45.286;9.900;2023-03-17T01:00:55;12.20;;;6.65;;
47804;SDS011;33568;45.286;9.900;2023-03-17T01:03:22;9.50;;;5.30;;
47804;SDS011;33568;45.286;9.900;2023-03-17T01:05:50;10.43;;;5.97;;
47804;SDS011;33568;45.286;9.900;2023-03-17T01:08:19;10.02;;;5.50;;
47804;SDS011;33568;45.286;9.900;2023-03-17T01:10:47;9.85;;;5.68;;
47804;SDS011;33568;45.286;9.900;2023-03-17T01:13:17;12.52;;;5.80;;
47804;SDS011;33568;45.286;9.900;2023-03-17T01:15:45;13.77;;;6.32;;
47804;SDS011;33568;45.286;9.900;2023-03-17T01:18:13;9.65;;;5.85;;
47804;SDS011;33568;45.286;9.900;2023-03-17T01:20:42;10.57;;;6.20;;
47804;SDS011;33568;45.286;9.900;2023-03-17T01:23:10;10.45;;;5.80;;
47804;SDS011;33568;45.286;9.900;2023-03-17T01:25:37;9.48;;;5.97;;
47804;SDS011;33568;45.286;9.900;2023-03-17T01:28:06;9.48;;;6.03;;
47804;SDS011;33568;45.286;9.900;2023-03-17T01:30:44;10.57;;;6.15;;
47804;SDS011;33568;45.286;9.900;2023-03-17T01:33:12;12.75;;;7.63;;
47804;SDS011;33568;45.286;9.900;2023-03-17T01:35:40;11.85;;;5.70;;
47804;SDS011;33568;45.286;9.900;2023-03-17T01:38:08;8.93;;;6.05;;
47804;SDS011;33568;45.286;9.900;2023-03-17T01:40:37;15.90;;;6.78;;
47804;SDS011;33568;45.286;9.900;2023-03-17T01:54:13;9.63;;;5.68;;
47804;SDS011;33568;45.286;9.900;2023-03-17T01:56:43;11.48;;;6.00;;
47804;SDS011;33568;45.286;9.900;2023-03-17T01:59:16;10.75;;;6.90;;
47804;SDS011;33568;45.286;9.900;2023-03-17T02:01:49;9.93;;;6.32;;
47804;SDS011;33568;45.286;9.900;2023-03-17T02:04:19;11.18;;;6.43;;
47804;SDS011;33568;45.286;9.900;2023-03-17T02:06:48;12.63;;;6.57;;
47804;SDS011;33568;45.286;9.900;2023-03-17T02:09:16;8.80;;;6.03;;
47804;SDS011;33568;45.286;9.900;2023-03-17T02:11:43;11.70;;;6.25;;
47804;SDS011;33568;45.286;9.900;2023-03-17T02:14:10;11.65;;;5.88;;
47804;SDS011;33568;45.286;9.900;2023-03-17T02:16:37;8.95;;;6.53;;
47804;SDS011;33568;45.286;9.900;2023-03-17T02:21:37;13.38;;;6.38;;
47804;SDS011;33568;45.286;9.900;2023-03-17T02:24:08;9.85;;;6.28;;
47804;SDS011;33568;45.286;9.900;2023-03-17T02:26:40;15.00;;;6.90;;
47804;SDS011;33568;45.286;9.900;2023-03-17T02:29:10;9.07;;;5.72;;
47804;SDS011;33568;45.286;9.900;2023-03-17T02:31:40;11.25;;;6.47;;
47804;SDS011;33568;45.286;9.900;2023-03-17T02:34:07;9.60;;;6.05;;
47804;SDS011;33568;45.286;9.900;2023-03-17T02:36:33;10.40;;;6.30;;
47804;SDS011;33568;45.286;9.900;2023-03-17T02:39:01;13.48;;;6.35;;
47804;SDS011;33568;45.286;9.900;2023-03-17T02:41:29;9.30;;;6.85;;
47804;SDS011;33568;45.286;9.900;2023-03-17T02:43:55;11.23;;;7.85;;
47804;SDS011;33568;45.286;9.900;2023-03-17T02:48:50;16.02;;;7.28;;
47804;SDS011;33568;45.286;9.900;2023-03-17T02:51:16;9.20;;;6.63;;
47804;SDS011;33568;45.286;9.900;2023-03-17T02:56:09;13.23;;;7.32;;
47804;SDS011;33568;45.286;9.900;2023-03-17T02:58:37;12.48;;;7.43;;
47804;SDS011;33568;45.286;9.900;2023-03-17T03:03:29;16.10;;;7.60;;
47804;SDS011;33568;45.286;9.900;2023-03-17T03:05:56;14.57;;;7.22;;
47804;SDS011;33568;45.286;9.900;2023-03-17T03:08:23;17.10;;;8.55;;
47804;SDS011;33568;45.286;9.900;2023-03-17T03:10:51;17.13;;;7.97;;
47804;SDS011;33568;45.286;9.900;2023-03-17T03:13:17;13.93;;;8.32;;
47804;SDS011;33568;45.286;9.900;2023-03-17T03:15:44;13.20;;;9.05;;
47804;SDS011;33568;45.286;9.900;2023-03-17T03:18:11;11.52;;;8.35;;
47804;SDS011;33568;45.286;9.900;2023-03-17T03:20:40;12.88;;;8.73;;
47804;SDS011;33568;45.286;9.900;2023-03-17T03:23:07;20.63;;;8.43;;
47804;SDS011;33568;45.286;9.900;2023-03-17T03:25:34;17.83;;;7.82;;
47804;SDS011;33568;45.286;9.900;2023-03-17T03:28:06;10.20;;;7.43;;
47804;SDS011;33568;45.286;9.900;2023-03-17T03:30:34;16.60;;;8.05;;
47804;SDS011;33568;45.286;9.900;2023-03-17T03:33:01;12.10;;;7.88;;
47804;SDS011;33568;45.286;9.900;2023-03-17T03:35:28;11.15;;;7.60;;
47804;SDS011;33568;45.286;9.900;2023-03-17T03:37:56;11.90;;;7.40;;
47804;SDS011;33568;45.286;9.900;2023-03-17T03:40:23;14.13;;;7.53;;
47804;SDS011;33568;45.286;9.900;2023-03-17T03:42:50;9.40;;;6.35;;
47804;SDS011;33568;45.286;9.900;2023-03-17T03:47:43;15.05;;;7.15;;
47804;SDS011;33568;45.286;9.900;2023-03-17T03:52:36;11.88;;;6.78;;
47804;SDS011;33568;45.286;9.900;2023-03-17T03:57:29;13.27;;;7.40;;
47804;SDS011;33568;45.286;9.900;2023-03-17T04:02:22;25.27;;;7.25;;
47804;SDS011;33568;45.286;9.900;2023-03-17T04:07:15;9.55;;;6.90;;
47804;SDS011;33568;45.286;9.900;2023-03-17T04:09:41;11.98;;;7.68;;
47804;SDS011;33568;45.286;9.900;2023-03-17T04:12:08;13.60;;;7.68;;
47804;SDS011;33568;45.286;9.900;2023-03-17T04:14:35;18.25;;;7.47;;
47804;SDS011;33568;45.286;9.900;2023-03-17T04:19:29;10.18;;;6.53;;
47804;SDS011;33568;45.286;9.900;2023-03-17T04:21:56;12.52;;;7.70;;
47804;SDS011;33568;45.286;9.900;2023-03-17T04:24:23;13.40;;;6.97;;
47804;SDS011;33568;45.286;9.900;2023-03-17T04:26:49;16.27;;;7.72;;
47804;SDS011;33568;45.286;9.900;2023-03-17T04:29:16;12.05;;;6.80;;
47804;SDS011;33568;45.286;9.900;2023-03-17T04:31:43;10.27;;;6.95;;
47804;SDS011;33568;45.286;9.900;2023-03-17T04:34:14;10.63;;;7.07;;
47804;SDS011;33568;45.286;9.900;2023-03-17T04:36:43;15.68;;;7.78;;
47804;SDS011;33568;45.286;9.900;2023-03-17T04:39:11;10.70;;;7.25;;
47804;SDS011;33568;45.286;9.900;2023-03-17T04:41:38;10.50;;;7.10;;
47804;SDS011;33568;45.286;9.900;2023-03-17T04:44:06;11.68;;;8.07;;
47804;SDS011;33568;45.286;9.900;2023-03-17T04:46:33;11.07;;;7.78;;
47804;SDS011;33568;45.286;9.900;2023-03-17T04:49:00;16.67;;;7.47;;
47804;SDS011;33568;45.286;9.900;2023-03-17T04:51:27;12.75;;;9.82;;
47804;SDS011;33568;45.286;9.900;2023-03-17T04:56:21;12.90;;;8.10;;
47804;SDS011;33568;45.286;9.900;2023-03-17T04:58:47;13.82;;;7.32;;
47804;SDS011;33568;45.286;9.900;2023-03-17T05:01:14;14.40;;;9.07;;
47804;SDS011;33568;45.286;9.900;2023-03-17T05:03:41;15.52;;;9.70;;
47804;SDS011;33568;45.286;9.900;2023-03-17T05:08:34;20.27;;;8.85;;
47804;SDS011;33568;45.286;9.900;2023-03-17T05:13:27;18.42;;;8.73;;
47804;SDS011;33568;45.286;9.900;2023-03-17T05:18:22;17.20;;;8.65;;
47804;SDS011;33568;45.286;9.900;2023-03-17T05:20:50;14.88;;;8.45;;
47804;SDS011;33568;45.286;9.900;2023-03-17T05:23:16;19.20;;;9.25;;
47804;SDS011;33568;45.286;9.900;2023-03-17T05:25:43;15.35;;;9.40;;
47804;SDS011;33568;45.286;9.900;2023-03-17T05:28:10;14.63;;;8.27;;
47804;SDS011;33568;45.286;9.900;2023-03-17T05:30:38;14.05;;;8.27;;
47804;SDS011;33568;45.286;9.900;2023-03-17T05:33:05;10.52;;;6.65;;
47804;SDS011;33568;45.286;9.900;2023-03-17T05:35:32;13.10;;;8.10;;
47804;SDS011;33568;45.286;9.900;2023-03-17T05:40:24;23.17;;;7.70;;
47804;SDS011;33568;45.286;9.900;2023-03-17T05:42:51;8.75;;;6.95;;
47804;SDS011;33568;45.286;9.900;2023-03-17T05:45:18;9.68;;;6.85;;
47804;SDS011;33568;45.286;9.900;2023-03-17T05:50:12;16.20;;;7.30;;
47804;SDS011;33568;45.286;9.900;2023-03-17T05:52:38;14.18;;;8.07;;
47804;SDS011;33568;45.286;9.900;2023-03-17T05:57:32;15.35;;;7.13;;
47804;SDS011;33568;45.286;9.900;2023-03-17T05:59:59;10.05;;;7.13;;
47804;SDS011;33568;45.286;9.900;2023-03-17T06:04:52;11.95;;;7.43;;
47804;SDS011;33568;45.286;9.900;2023-03-17T06:07:19;9.07;;;6.60;;
47804;SDS011;33568;45.286;9.900;2023-03-17T06:09:45;18.55;;;6.93;;
47804;SDS011;33568;45.286;9.900;2023-03-17T06:12:13;13.95;;;7.07;;
47804;SDS011;33568;45.286;9.900;2023-03-17T06:14:41;13.68;;;7.15;;
47804;SDS011;33568;45.286;9.900;2023-03-17T06:19:34;10.98;;;7.68;;
47804;SDS011;33568;45.286;9.900;2023-03-17T06:22:01;14.25;;;7.80;;
47804;SDS011;33568;45.286;9.900;2023-03-17T06:24:28;12.00;;;7.65;;
47804;SDS011;33568;45.286;9.900;2023-03-17T06:26:55;14.43;;;8.32;;
47804;SDS011;33568;45.286;9.900;2023-03-17T06:29:26;10.98;;;7.20;;
47804;SDS011;33568;45.286;9.900;2023-03-17T06:31:54;13.73;;;6.88;;
47804;SDS011;33568;45.286;9.900;2023-03-17T06:34:24;19.30;;;7.47;;
47804;SDS011;33568;45.286;9.900;2023-03-17T06:36:52;12.73;;;8.07;;
47804;SDS011;33568;45.286;9.900;2023-03-17T06:39:19;12.52;;;7.60;;
47804;SDS011;33568;45.286;9.900;2023-03-17T06:41:47;24.20;;;7.75;;
47804;SDS011;33568;45.286;9.900;2023-03-17T06:44:16;14.10;;;8.50;;
47804;SDS011;33568;45.286;9.900;2023-03-17T06:49:08;18.92;;;7.88;;
47804;SDS011;33568;45.286;9.900;2023-03-17T06:51:38;14.10;;;7.82;;
47804;SDS011;33568;45.286;9.900;2023-03-17T06:54:07;16.52;;;8.23;;
47804;SDS011;33568;45.286;9.900;2023-03-17T06:56:35;15.35;;;8.40;;
47804;SDS011;33568;45.286;9.900;2023-03-17T06:59:02;16.25;;;8.57;;
47804;SDS011;33568;45.286;9.900;2023-03-17T07:01:31;10.68;;;7.85;;
47804;SDS011;33568;45.286;9.900;2023-03-17T07:03:59;14.27;;;8.10;;
47804;SDS011;33568;45.286;9.900;2023-03-17T07:06:26;15.18;;;8.23;;
47804;SDS011;33568;45.286;9.900;2023-03-17T07:08:54;13.80;;;7.93;;
47804;SDS011;33568;45.286;9.900;2023-03-17T07:11:22;15.88;;;9.90;;
47804;SDS011;33568;45.286;9.900;2023-03-17T07:13:51;13.48;;;8.40;;
47804;SDS011;33568;45.286;9.900;2023-03-17T07:18:46;12.63;;;7.75;;
47804;SDS011;33568;45.286;9.900;2023-03-17T07:21:13;13.88;;;8.32;;
47804;SDS011;33568;45.286;9.900;2023-03-17T07:26:06;19.20;;;8.05;;
47804;SDS011;33568;45.286;9.900;2023-03-17T07:28:34;16.30;;;7.90;;
47804;SDS011;33568;45.286;9.900;2023-03-17T07:31:01;12.82;;;7.55;;
47804;SDS011;33568;45.286;9.900;2023-03-17T07:33:27;16.35;;;7.72;;
47804;SDS011;33568;45.286;9.900;2023-03-17T07:35:55;13.05;;;7.63;;
47804;SDS011;33568;45.286;9.900;2023-03-17T07:40:48;9.45;;;7.32;;
47804;SDS011;33568;45.286;9.900;2023-03-17T07:45:42;13.50;;;7.40;;
47804;SDS011;33568;45.286;9.900;2023-03-17T07:48:09;15.88;;;7.00;;
47804;SDS011;33568;45.286;9.900;2023-03-17T07:50:36;15.70;;;7.38;;
47804;SDS011;33568;45.286;9.900;2023-03-17T07:55:29;19.13;;;5.97;;
47804;SDS011;33568;45.286;9.900;2023-03-17T07:57:57;13.98;;;7.30;;
47804;SDS011;33568;45.286;9.900;2023-03-17T08:00:24;14.77;;;6.25;;
47804;SDS011;33568;45.286;9.900;2023-03-17T08:02:52;12.38;;;6.97;;
47804;SDS011;33568;45.286;9.900;2023-03-17T08:05:18;13.63;;;6.32;;
47804;SDS011;33568;45.286;9.900;2023-03-17T08:07:45;18.27;;;6.03;;
47804;SDS011;33568;45.286;9.900;2023-03-17T08:10:12;27.38;;;6.40;;
47804;SDS011;33568;45.286;9.900;2023-03-17T08:12:39;12.75;;;6.25;;
47804;SDS011;33568;45.286;9.900;2023-03-17T08:15:06;8.63;;;5.18;;
47804;SDS011;33568;45.286;9.900;2023-03-17T08:17:34;11.10;;;6.13;;
47804;SDS011;33568;45.286;9.900;2023-03-17T08:20:01;14.25;;;6.32;;
47804;SDS011;33568;45.286;9.900;2023-03-17T08:22:29;10.27;;;5.28;;
47804;SDS011;33568;45.286;9.900;2023-03-17T08:24:56;9.48;;;5.28;;
47804;SDS011;33568;45.286;9.900;2023-03-17T08:27:23;11.30;;;5.50;;
47804;SDS011;33568;45.286;9.900;2023-03-17T08:29:50;10.98;;;4.90;;
47804;SDS011;33568;45.286;9.900;2023-03-17T08:34:43;14.27;;;5.10;;
47804;SDS011;33568;45.286;9.900;2023-03-17T08:37:11;10.23;;;5.05;;
47804;SDS011;33568;45.286;9.900;2023-03-17T08:39:37;8.77;;;4.93;;
47804;SDS011;33568;45.286;9.900;2023-03-17T08:42:04;17.13;;;4.68;;
47804;SDS011;33568;45.286;9.900;2023-03-17T08:46:57;10.25;;;4.70;;
47804;SDS011;33568;45.286;9.900;2023-03-17T08:51:49;10.40;;;5.40;;
47804;SDS011;33568;45.286;9.900;2023-03-17T08:54:16;10.93;;;4.70;;
47804;SDS011;33568;45.286;9.900;2023-03-17T08:56:43;10.15;;;4.45;;
47804;SDS011;33568;45.286;9.900;2023-03-17T09:01:36;7.32;;;4.07;;
47804;SDS011;33568;45.286;9.900;2023-03-17T09:04:04;9.38;;;4.55;;
47804;SDS011;33568;45.286;9.900;2023-03-17T09:06:31;11.07;;;4.25;;
47804;SDS011;33568;45.286;9.900;2023-03-17T09:11:26;12.30;;;4.13;;
47804;SDS011;33568;45.286;9.900;2023-03-17T09:13:54;10.80;;;4.70;;
47804;SDS011;33568;45.286;9.900;2023-03-17T09:16:22;10.27;;;4.15;;
47804;SDS011;33568;45.286;9.900;2023-03-17T09:18:49;10.32;;;4.38;;
47804;SDS011;33568;45.286;9.900;2023-03-17T09:21:16;11.85;;;4.90;;
47804;SDS011;33568;45.286;9.900;2023-03-17T09:23:43;5.68;;;3.50;;
47804;SDS011;33568;45.286;9.900;2023-03-17T09:26:10;11.25;;;3.38;;
47804;SDS011;33568;45.286;9.900;2023-03-17T09:28:37;6.68;;;3.67;;
47804;SDS011;33568;45.286;9.900;2023-03-17T09:31:04;13.70;;;5.10;;
47804;SDS011;33568;45.286;9.900;2023-03-17T09:33:36;13.00;;;4.53;;
47804;SDS011;33568;45.286;9.900;2023-03-17T09:36:04;7.35;;;3.30;;
47804;SDS011;33568;45.286;9.900;2023-03-17T09:38:31;10.15;;;3.50;;
47804;SDS011;33568;45.286;9.900;2023-03-17T09:49:24;8.20;;;3.53;;
47804;SDS011;33568;45.286;9.900;2023-03-17T09:52:02;4.32;;;2.50;;
47804;SDS011;33568;45.286;9.900;2023-03-17T09:54:33;4.50;;;3.03;;
47804;SDS011;33568;45.286;9.900;2023-03-17T09:59:42;6.82;;;2.65;;
47804;SDS011;33568;45.286;9.900;2023-03-17T10:04:50;4.38;;;2.80;;
47804;SDS011;33568;45.286;9.900;2023-03-17T10:10:04;3.08;;;2.58;;
47804;SDS011;33568;45.286;9.900;2023-03-17T10:18:22;7.65;;;3.72;;
47804;SDS011;33568;45.286;9.900;2023-03-17T10:20:59;8.20;;;3.47;;
47804;SDS011;33568;45.286;9.900;2023-03-17T10:28:29;9.75;;;3.58;;
47804;SDS011;33568;45.286;9.900;2023-03-17T10:31:05;6.75;;;4.10;;
47804;SDS011;33568;45.286;9.900;2023-03-17T10:33:41;4.53;;;3.58;;
47804;SDS011;33568;45.286;9.900;2023-03-17T10:36:09;5.43;;;3.28;;
47804;SDS011;33568;45.286;9.900;2023-03-17T10:38:39;4.35;;;3.05;;
47804;SDS011;33568;45.286;9.900;2023-03-17T10:41:07;8.55;;;3.30;;
47804;SDS011;33568;45.286;9.900;2023-03-17T10:43:45;4.25;;;2.75;;
47804;SDS011;33568;45.286;9.900;2023-03-17T10:46:19;5.38;;;2.92;;
47804;SDS011;33568;45.286;9.900;2023-03-17T10:48:52;6.97;;;4.30;;
47804;SDS011;33568;45.286;9.900;2023-03-17T10:51:28;8.00;;;3.60;;
47804;SDS011;33568;45.286;9.900;2023-03-17T10:54:00;6.82;;;3.72;;
47804;SDS011;33568;45.286;9.900;2023-03-17T10:56:32;6.40;;;3.75;;
47804;SDS011;33568;45.286;9.900;2023-03-17T10:59:05;6.15;;;2.90;;
47804;SDS011;33568;45.286;9.900;2023-03-17T11:01:40;4.80;;;3.47;;
47804;SDS011;33568;45.286;9.900;2023-03-17T11:06:56;3.88;;;3.03;;
47804;SDS011;33568;45.286;9.900;2023-03-17T11:09:24;6.30;;;3.17;;
47804;SDS011;33568;45.286;9.900;2023-03-17T11:15:01;9.57;;;3.50;;
47804;SDS011;33568;45.286;9.900;2023-03-17T11:22:52;5.90;;;2.90;;
47804;SDS011;33568;45.286;9.900;2023-03-17T11:25:24;4.95;;;3.20;;
47804;SDS011;33568;45.286;9.900;2023-03-17T11:36:34;6.95;;;3.45;;
47804;SDS011;33568;45.286;9.900;2023-03-17T11:39:27;8.25;;;3.70;;
47804;SDS011;33568;45.286;9.900;2023-03-17T11:50:25;7.90;;;3.50;;
47804;SDS011;33568;45.286;9.900;2023-03-17T11:55:42;5.57;;;3.72;;
47804;SDS011;33568;45.286;9.900;2023-03-17T11:58:42;13.05;;;3.95;;
47804;SDS011;33568;45.286;9.900;2023-03-17T12:01:11;5.60;;;3.50;;
47804;SDS011;33568;45.286;9.900;2023-03-17T12:04:06;9.35;;;3.97;;
47804;SDS011;33568;45.286;9.900;2023-03-17T12:06:42;8.05;;;3.72;;
47804;SDS011;33568;45.286;9.900;2023-03-17T12:12:08;4.25;;;3.45;;
47804;SDS011;33568;45.286;9.900;2023-03-17T12:14:43;7.20;;;3.92;;
47804;SDS011;33568;45.286;9.900;2023-03-17T12:17:15;4.47;;;3.35;;
47804;SDS011;33568;45.286;9.900;2023-03-17T12:22:49;7.53;;;3.65;;
47804;SDS011;33568;45.286;9.900;2023-03-17T12:25:34;3.72;;;2.88;;
47804;SDS011;33568;45.286;9.900;2023-03-17T12:28:14;4.10;;;3.25;;
47804;SDS011;33568;45.286;9.900;2023-03-17T12:30:52;6.93;;;3.72;;
47804;SDS011;33568;45.286;9.900;2023-03-17T12:33:35;8.95;;;3.40;;
47804;SDS011;33568;45.286;9.900;2023-03-17T12:36:36;5.97;;;4.03;;
47804;SDS011;33568;45.286;9.900;2023-03-17T12:39:13;11.80;;;3.95;;
47804;SDS011;33568;45.286;9.900;2023-03-17T12:44:34;7.95;;;5.22;;
47804;SDS011;33568;45.286;9.900;2023-03-17T12:47:56;3.90;;;3.30;;
47804;SDS011;33568;45.286;9.900;2023-03-17T12:50:37;5.35;;;3.90;;
47804;SDS011;33568;45.286;9.900;2023-03-17T12:53:49;4.55;;;3.80;;
47804;SDS011;33568;45.286;9.900;2023-03-17T12:56:38;6.45;;;3.50;;
47804;SDS011;33568;45.286;9.900;2023-03-17T12:59:12;5.38;;;4.30;;
47804;SDS011;33568;45.286;9.900;2023-03-17T13:01:43;6.63;;;3.88;;
47804;SDS011;33568;45.286;9.900;2023-03-17T13:04:22;5.72;;;4.03;;
47804;SDS011;33568;45.286;9.900;2023-03-17T13:07:09;6.78;;;3.88;;
47804;SDS011;33568;45.286;9.900;2023-03-17T13:12:54;6.18;;;3.92;;
47804;SDS011;33568;45.286;9.900;2023-03-17T13:15:51;6.80;;;3.58;;
47804;SDS011;33568;45.286;9.900;2023-03-17T13:20:50;5.80;;;4.00;;
47804;SDS011;33568;45.286;9.900;2023-03-17T13:26:19;7.35;;;6.03;;
47804;SDS011;33568;45.286;9.900;2023-03-17T13:28:48;6.97;;;4.72;;
47804;SDS011;33568;45.286;9.900;2023-03-17T13:34:13;6.95;;;4.20;;
47804;SDS011;33568;45.286;9.900;2023-03-17T13:39:24;5.93;;;4.40;;
47804;SDS011;33568;45.286;9.900;2023-03-17T13:47:37;5.40;;;3.60;;
47804;SDS011;33568;45.286;9.900;2023-03-17T13:50:15;4.68;;;3.58;;
47804;SDS011;33568;45.286;9.900;2023-03-17T13:52:47;7.57;;;4.47;;
47804;SDS011;33568;45.286;9.900;2023-03-17T13:58:14;8.93;;;4.20;;
47804;SDS011;33568;45.286;9.900;2023-03-17T14:00:46;7.05;;;4.85;;
47804;SDS011;33568;45.286;9.900;2023-03-17T14:05:55;7.07;;;4.93;;
47804;SDS011;33568;45.286;9.900;2023-03-17T14:10:53;9.55;;;5.13;;
47804;SDS011;33568;45.286;9.900;2023-03-17T14:13:23;6.30;;;4.90;;
47804;SDS011;33568;45.286;9.900;2023-03-17T14:16:16;6.15;;;4.50;;
47804;SDS011;33568;45.286;9.900;2023-03-17T14:18:51;5.22;;;3.90;;
47804;SDS011;33568;45.286;9.900;2023-03-17T14:21:24;8.88;;;4.30;;
47804;SDS011;33568;45.286;9.900;2023-03-17T14:23:56;9.70;;;4.30;;
47804;SDS011;33568;45.286;9.900;2023-03-17T14:26:26;6.82;;;4.35;;
47804;SDS011;33568;45.286;9.900;2023-03-17T14:28:59;15.93;;;5.07;;
47804;SDS011;33568;45.286;9.900;2023-03-17T14:31:27;8.75;;;4.35;;
47804;SDS011;33568;45.286;9.900;2023-03-17T14:33:56;14.65;;;5.80;;
47804;SDS011;33568;45.286;9.900;2023-03-17T14:36:24;10.27;;;5.20;;
47804;SDS011;33568;45.286;9.900;2023-03-17T14:38:53;7.10;;;5.40;;
47804;SDS011;33568;45.286;9.900;2023-03-17T14:41:22;5.97;;;4.90;;
47804;SDS011;33568;45.286;9.900;2023-03-17T14:43:51;7.97;;;5.05;;
47804;SDS011;33568;45.286;9.900;2023-03-17T14:46:30;7.50;;;5.03;;
47804;SDS011;33568;45.286;9.900;2023-03-17T14:49:15;5.97;;;4.40;;
47804;SDS011;33568;45.286;9.900;2023-03-17T14:51:46;6.63;;;4.32;;
47804;SDS011;33568;45.286;9.900;2023-03-17T14:54:19;7.57;;;4.20;;
47804;SDS011;33568;45.286;9.900;2023-03-17T14:56:54;5.72;;;4.18;;
47804;SDS011;33568;45.286;9.900;2023-03-17T15:02:21;5.43;;;4.10;;
47804;SDS011;33568;45.286;9.900;2023-03-17T15:05:02;5.03;;;3.97;;
47804;SDS011;33568;45.286;9.900;2023-03-17T15:07:37;8.60;;;3.92;;
47804;SDS011;33568;45.286;9.900;2023-03-17T15:10:27;7.78;;;4.00;;
47804;SDS011;33568;45.286;9.900;2023-03-17T15:12:59;7.72;;;4.28;;
47804;SDS011;33568;45.286;9.900;2023-03-17T15:15:28;4.25;;;3.85;;
47804;SDS011;33568;45.286;9.900;2023-03-17T15:17:59;5.95;;;3.72;;
47804;SDS011;33568;45.286;9.900;2023-03-17T15:20:32;4.28;;;3.80;;
47804;SDS011;33568;45.286;9.900;2023-03-17T15:23:04;7.75;;;4.38;;
47804;SDS011;33568;45.286;9.900;2023-03-17T15:25:43;6.93;;;3.78;;
47804;SDS011;33568;45.286;9.900;2023-03-17T15:28:13;7.38;;;4.15;;
47804;SDS011;33568;45.286;9.900;2023-03-17T15:30:42;5.07;;;3.80;;
47804;SDS011;33568;45.286;9.900;2023-03-17T15:35:55;5.97;;;3.90;;
47804;SDS011;33568;45.286;9.900;2023-03-17T15:38:24;5.45;;;4.00;;
47804;SDS011;33568;45.286;9.900;2023-03-17T15:40:52;4.60;;;4.00;;
47804;SDS011;33568;45.286;9.900;2023-03-17T15:43:20;6.35;;;4.15;;
47804;SDS011;33568;45.286;9.900;2023-03-17T15:45:50;5.85;;;4.85;;
47804;SDS011;33568;45.286;9.900;2023-03-17T15:48:24;11.40;;;7.80;;
47804;SDS011;33568;45.286;9.900;2023-03-17T15:50:54;5.47;;;4.38;;
47804;SDS011;33568;45.286;9.900;2023-03-17T15:53:23;6.10;;;4.20;;
47804;SDS011;33568;45.286;9.900;2023-03-17T15:55:50;10.63;;;3.63;;
47804;SDS011;33568;45.286;9.900;2023-03-17T15:58:18;4.53;;;3.88;;
47804;SDS011;33568;45.286;9.900;2023-03-17T16:00:46;10.38;;;3.30;;
47804;SDS011;33568;45.286;9.900;2023-03-17T16:03:23;6.50;;;4.10;;
47804;SDS011;33568;45.286;9.900;2023-03-17T16:05:57;8.98;;;3.65;;
47804;SDS011;33568;45.286;9.900;2023-03-17T16:08:25;13.82;;;6.22;;
47804;SDS011;33568;45.286;9.900;2023-03-17T16:10:52;10.93;;;3.78;;
47804;SDS011;33568;45.286;9.900;2023-03-17T16:15:55;4.78;;;3.80;;
47804;SDS011;33568;45.286;9.900;2023-03-17T16:18:41;5.07;;;4.57;;
47804;SDS011;33568;45.286;9.900;2023-03-17T16:21:08;3.95;;;3.20;;
47804;SDS011;33568;45.286;9.900;2023-03-17T16:23:35;7.10;;;3.70;;
47804;SDS011;33568;45.286;9.900;2023-03-17T16:26:01;7.72;;;4.20;;
47804;SDS011;33568;45.286;9.900;2023-03-17T16:28:29;9.10;;;4.97;;
47804;SDS011;33568;45.286;9.900;2023-03-17T16:30:57;9.68;;;4.03;;
47804;SDS011;33568;45.286;9.900;2023-03-17T16:33:26;10.93;;;5.68;;
47804;SDS011;33568;45.286;9.900;2023-03-17T16:36:03;27.63;;;15.63;;
47804;SDS011;33568;45.286;9.900;2023-03-17T16:38:30;11.00;;;6.80;;
47804;SDS011;33568;45.286;9.900;2023-03-17T16:40:59;9.38;;;7.57;;
47804;SDS011;33568;45.286;9.900;2023-03-17T16:43:32;9.40;;;7.38;;
47804;SDS011;33568;45.286;9.900;2023-03-17T16:46:03;6.05;;;3.72;;
47804;SDS011;33568;45.286;9.900;2023-03-17T16:48:31;7.68;;;4.80;;
47804;SDS011;33568;45.286;9.900;2023-03-17T16:50:58;7.65;;;3.80;;
47804;SDS011;33568;45.286;9.900;2023-03-17T16:53:25;9.40;;;4.38;;
47804;SDS011;33568;45.286;9.900;2023-03-17T16:55:52;5.80;;;3.53;;
47804;SDS011;33568;45.286;9.900;2023-03-17T16:58:20;5.10;;;3.67;;
47804;SDS011;33568;45.286;9.900;2023-03-17T17:00:49;11.07;;;4.13;;
47804;SDS011;33568;45.286;9.900;2023-03-17T17:03:18;10.20;;;3.90;;
47804;SDS011;33568;45.286;9.900;2023-03-17T17:05:45;7.78;;;4.05;;
47804;SDS011;33568;45.286;9.900;2023-03-17T17:08:12;6.00;;;3.85;;
47804;SDS011;33568;45.286;9.900;2023-03-17T17:10:39;5.10;;;4.10;;
47804;SDS011;33568;45.286;9.900;2023-03-17T17:13:07;17.50;;;4.90;;
47804;SDS011;33568;45.286;9.900;2023-03-17T17:15:35;6.43;;;4.40;;
47804;SDS011;33568;45.286;9.900;2023-03-17T17:18:13;11.30;;;4.65;;
47804;SDS011;33568;45.286;9.900;2023-03-17T17:20:44;15.77;;;6.00;;
47804;SDS011;33568;45.286;9.900;2023-03-17T17:23:11;10.38;;;6.20;;
47804;SDS011;33568;45.286;9.900;2023-03-17T17:25:40;13.40;;;5.50;;
47804;SDS011;33568;45.286;9.900;2023-03-17T17:28:08;19.88;;;6.03;;
47804;SDS011;33568;45.286;9.900;2023-03-17T17:30:36;17.17;;;13.85;;
47804;SDS011;33568;45.286;9.900;2023-03-17T17:33:04;20.55;;;18.20;;
47804;SDS011;33568;45.286;9.900;2023-03-17T17:35:34;56.05;;;40.10;;
47804;SDS011;33568;45.286;9.900;2023-03-17T17:38:02;35.38;;;13.07;;
47804;SDS011;33568;45.286;9.900;2023-03-17T17:40:29;22.77;;;8.23;;
47804;SDS011;33568;45.286;9.900;2023-03-17T17:42:56;6.03;;;4.72;;
47804;SDS011;33568;45.286;9.900;2023-03-17T17:45:23;11.18;;;7.05;;
47804;SDS011;33568;45.286;9.900;2023-03-17T17:47:50;10.25;;;4.68;;
47804;SDS011;33568;45.286;9.900;2023-03-17T17:50:18;8.60;;;4.30;;
47804;SDS011;33568;45.286;9.900;2023-03-17T17:52:48;11.50;;;5.07;;
47804;SDS011;33568;45.286;9.900;2023-03-17T17:57:40;20.75;;;5.22;;
47804;SDS011;33568;45.286;9.900;2023-03-17T18:02:35;10.73;;;6.22;;
47804;SDS011;33568;45.286;9.900;2023-03-17T18:05:01;16.83;;;6.55;;
47804;SDS011;33568;45.286;9.900;2023-03-17T18:07:31;13.57;;;7.15;;
47804;SDS011;33568;45.286;9.900;2023-03-17T18:09:57;11.88;;;6.20;;
47804;SDS011;33568;45.286;9.900;2023-03-17T18:14:51;12.27;;;6.00;;